Time;durP1;ratioP1;P1;durP2;ratioP2;P2;SDS_P1;SDS_P2;PMS_P1;PMS_P2;Temp;Humidity;BMP_temperature;BMP_pressure;BME280_temperature;BME280_humidity;BME280_pressure;Samples;Min_cycle;Max_cycle;Signal;HPM_P1;HPM_P2
2022/04/04 00:00:45;;;;;;;3.70;1.00;;;;;;;-1.31;63.90;99544.72;5075219;28;20048;-76
2022/04/04 00:03:11;;;;;;;1.52;1.00;;;;;;;-1.35;63.95;99547.06;5073715;28;20044;-76
2022/04/04 00:05:38;;;;;;;3.45;0.93;;;;;;;-1.39;63.72;99536.97;5074390;28;20136;-76
2022/04/04 00:08:04;;;;;;;2.17;1.00;;;;;;;-1.41;64.51;99539.91;5070013;28;20430;-76
2022/04/04 00:10:30;;;;;;;3.08;1.15;;;;;;;-1.28;64.45;99544.25;5073865;28;20036;-76
2022/04/04 00:12:56;;;;;;;0.98;0.80;;;;;;;-1.22;64.66;99544.16;5070902;28;20039;-76
2022/04/04 00:15:21;;;;;;;3.28;1.13;;;;;;;-1.27;64.92;99537.81;5073674;28;20040;-76
2022/04/04 00:17:47;;;;;;;4.40;1.08;;;;;;;-1.32;65.02;99530.47;5072123;28;20040;-76
2022/04/04 00:20:13;;;;;;;4.10;1.00;;;;;;;-1.22;65.15;99536.06;5073127;28;20386;-75
2022/04/04 00:22:39;;;;;;;1.55;0.73;;;;;;;-1.11;65.59;99534.47;5072376;28;20510;-76
2022/04/04 00:25:05;;;;;;;4.93;1.50;;;;;;;-1.01;65.08;99528.53;5074466;28;20132;-76
2022/04/04 00:27:30;;;;;;;2.28;0.98;;;;;;;-0.93;64.45;99523.59;5073441;28;20122;-76
2022/04/04 00:29:56;;;;;;;1.25;0.85;;;;;;;-0.85;64.31;99519.75;5075420;28;20029;-76
2022/04/04 00:32:22;;;;;;;2.55;0.80;;;;;;;-0.80;64.24;99521.72;5075536;28;20036;-76
2022/04/04 00:34:47;;;;;;;1.67;0.90;;;;;;;-0.76;64.02;99522.91;5074694;28;20032;-76
2022/04/04 00:37:14;;;;;;;2.00;0.95;;;;;;;-0.77;64.12;99513.19;5077785;28;20037;-76
2022/04/04 00:39:41;;;;;;;1.52;0.90;;;;;;;-0.73;63.67;99517.03;5078746;28;20033;-76
2022/04/04 00:42:07;;;;;;;2.83;0.90;;;;;;;-0.77;63.50;99511.31;5081788;28;20044;-76
2022/04/04 00:44:33;;;;;;;4.20;0.80;;;;;;;-0.85;63.63;99516.25;5078974;28;20547;-75
2022/04/04 00:46:58;;;;;;;2.38;0.90;;;;;;;-0.92;63.66;99517.16;5076397;28;20035;-76
2022/04/04 00:49:25;;;;;;;1.65;0.80;;;;;;;-0.89;64.17;99512.34;5083734;28;20036;-76
2022/04/04 00:51:50;;;;;;;1.35;0.80;;;;;;;-0.78;64.06;99511.53;5077359;28;20521;-76
2022/04/04 00:54:17;;;;;;;1.83;0.70;;;;;;;-0.70;63.45;99508.47;5073886;28;20078;-75
2022/04/04 00:56:42;;;;;;;3.95;1.13;;;;;;;-0.69;63.16;99510.16;5077499;28;20187;-76
2022/04/04 00:59:13;;;;;;;2.55;0.80;;;;;;;-0.75;63.03;99506.50;5075931;28;20586;-75
2022/04/04 01:01:41;;;;;;;3.67;1.05;;;;;;;-0.78;62.99;99503.47;5076664;28;20044;-75
2022/04/04 01:04:11;;;;;;;2.65;1.60;;;;;;;-0.80;63.34;99498.31;5076866;28;20460;-75
2022/04/04 01:06:38;;;;;;;1.98;0.80;;;;;;;-0.74;63.20;99501.94;5074952;28;20452;-75
2022/04/04 01:09:04;;;;;;;1.98;0.95;;;;;;;-0.83;63.06;99508.75;5076924;28;20578;-75
2022/04/04 01:11:30;;;;;;;1.80;0.60;;;;;;;-0.87;63.49;99507.53;5073981;28;20039;-76
2022/04/04 01:13:55;;;;;;;2.58;1.05;;;;;;;-0.82;62.97;99497.72;5076983;28;20040;-75
2022/04/04 01:16:21;;;;;;;3.72;0.90;;;;;;;-0.75;62.91;99498.41;5076659;28;20033;-75
2022/04/04 01:18:47;;;;;;;2.03;0.95;;;;;;;-0.68;63.04;99492.94;5074657;28;20052;-74
2022/04/04 01:21:13;;;;;;;2.15;0.73;;;;;;;-0.72;63.05;99486.34;5073021;28;20041;-74
2022/04/04 01:23:40;;;;;;;2.47;0.90;;;;;;;-0.78;62.88;99487.31;5077517;28;20054;-73
2022/04/04 01:26:10;;;;;;;5.30;0.82;;;;;;;-0.84;63.15;99480.16;5080259;28;20059;-75
2022/04/04 01:28:37;;;;;;;1.00;0.60;;;;;;;-0.82;62.98;99481.56;5096163;28;20032;-75
2022/04/04 01:31:04;;;;;;;3.15;0.80;;;;;;;-0.75;63.52;99479.56;5097327;28;20031;-75
2022/04/04 01:33:30;;;;;;;2.50;0.95;;;;;;;-0.67;63.38;99483.78;5093839;28;20032;-75
2022/04/04 01:35:57;;;;;;;3.58;0.77;;;;;;;-0.67;62.31;99475.72;5078886;28;20044;-75
2022/04/04 01:38:27;;;;;;;1.50;0.88;;;;;;;-0.72;62.79;99484.47;5078112;28;20050;-75
2022/04/04 01:40:52;;;;;;;;;;;;;;;-0.71;62.29;99478.03;5088074;28;20115;-75
2022/04/04 01:43:18;;;;;;;1.67;0.80;;;;;;;-0.73;62.53;99473.94;5097985;28;20066;-75
2022/04/04 01:48:34;;;;;;;1.60;0.93;;;;;;;-0.77;61.44;99480.84;5096288;28;20509;-76
2022/04/04 01:51:00;;;;;;;1.42;0.80;;;;;;;-0.83;61.21;99479.13;5096021;28;20063;-76
2022/04/04 01:53:25;;;;;;;1.05;0.70;;;;;;;-0.85;60.92;99471.28;5099096;28;20493;-76
2022/04/04 01:55:59;;;;;;;2.05;0.80;;;;;;;-0.92;61.03;99465.16;5096470;28;20066;-76
2022/04/04 01:58:25;;;;;;;0.85;0.60;;;;;;;-1.01;61.29;99475.50;5097268;28;21426;-76
2022/04/04 02:00:50;;;;;;;0.85;0.70;;;;;;;-0.99;60.51;99470.69;5076669;28;20502;-76
2022/04/04 02:03:16;;;;;;;1.25;0.63;;;;;;;-1.08;60.60;99471.25;5096019;28;20093;-76
2022/04/04 02:05:41;;;;;;;2.53;0.55;;;;;;;-1.12;61.04;99468.22;5094839;28;20036;-75
2022/04/04 02:08:07;;;;;;;2.53;1.00;;;;;;;-1.20;60.74;99463.19;5093999;28;20042;-76
2022/04/04 02:10:33;;;;;;;2.60;1.00;;;;;;;-1.28;61.10;99458.16;5093815;28;20107;-75
2022/04/04 02:12:59;;;;;;;2.40;0.88;;;;;;;-1.26;60.84;99456.03;5073276;28;20063;-77
2022/04/04 02:15:24;;;;;;;3.60;0.80;;;;;;;-1.30;61.13;99457.56;5094379;28;20119;-76
2022/04/04 02:17:51;;;;;;;1.80;0.80;;;;;;;-1.38;61.46;99457.91;5080545;28;20043;-76
2022/04/04 02:20:19;;;;;;;2.38;0.98;;;;;;;-1.46;61.29;99463.63;5098995;28;20023;-76
2022/04/04 02:22:44;;;;;;;2.30;1.00;;;;;;;-1.49;62.12;99459.53;5096275;28;20046;-76
2022/04/04 02:25:12;;;;;;;3.08;0.95;;;;;;;-1.48;62.67;99458.47;5094741;28;20040;-76
2022/04/04 02:27:37;;;;;;;1.98;0.98;;;;;;;-1.48;62.58;99457.66;5077375;28;20495;-76
2022/04/04 02:30:03;;;;;;;2.40;0.90;;;;;;;-1.51;62.56;99450.88;5097538;28;20047;-75
2022/04/04 02:32:29;;;;;;;1.60;1.05;;;;;;;-1.52;62.96;99454.63;5093240;28;20440;-75
2022/04/04 02:34:54;;;;;;;5.07;1.23;;;;;;;-1.54;63.01;99454.03;5093642;28;20036;-75
2022/04/04 02:37:20;;;;;;;2.28;1.10;;;;;;;-1.60;64.07;99450.38;5077148;28;20043;-75
2022/04/04 02:39:45;;;;;;;1.27;0.90;;;;;;;-1.63;64.09;99450.84;5093327;28;20046;-74
2022/04/04 02:42:11;;;;;;;4.70;1.20;;;;;;;-1.64;64.70;99457.28;5096295;28;20083;-75
2022/04/04 02:44:37;;;;;;;2.65;0.95;;;;;;;-1.75;65.07;99452.69;5074299;28;20032;-75
2022/04/04 02:47:02;;;;;;;2.53;1.42;;;;;;;-1.81;66.45;99459.00;5076108;28;20028;-75
2022/04/04 02:49:29;;;;;;;3.38;1.15;;;;;;;-1.88;66.45;99450.22;5096815;28;20141;-75
2022/04/04 02:51:55;;;;;;;4.40;1.48;;;;;;;-1.82;66.89;99451.97;5094989;28;20130;-75
2022/04/04 02:54:21;;;;;;;3.63;1.02;;;;;;;-1.84;66.78;99449.50;5078087;28;20036;-75
2022/04/04 02:56:47;;;;;;;4.32;1.52;;;;;;;-1.85;67.03;99449.75;5074318;28;20104;-75
2022/04/04 02:59:12;;;;;;;3.17;1.20;;;;;;;-1.82;67.66;99458.16;5094276;28;20130;-75
2022/04/04 03:01:38;;;;;;;2.22;1.40;;;;;;;-1.82;68.19;99446.59;5092102;28;20062;-75
2022/04/04 03:04:04;;;;;;;4.47;1.40;;;;;;;-1.87;67.87;99444.59;5069540;28;20092;-75
2022/04/04 03:06:30;;;;;;;2.05;1.15;;;;;;;-1.86;68.84;99442.72;5076418;28;20039;-76
2022/04/04 03:08:56;;;;;;;4.20;1.77;;;;;;;-1.93;69.40;99445.50;5091518;28;20044;-75
2022/04/04 03:11:22;;;;;;;2.72;1.30;;;;;;;-1.96;69.67;99448.66;5096356;28;20128;-75
2022/04/04 03:13:47;;;;;;;2.70;1.40;;;;;;;-1.92;70.03;99447.13;5073329;28;20450;-75
2022/04/04 03:16:13;;;;;;;4.32;1.45;;;;;;;-1.89;69.98;99445.88;5077579;28;20035;-75
2022/04/04 03:18:40;;;;;;;4.20;1.52;;;;;;;-1.83;70.30;99445.78;5091365;28;20032;-74
2022/04/04 03:21:06;;;;;;;2.30;1.40;;;;;;;-1.83;70.28;99444.97;5078557;28;20521;-76
2022/04/04 03:23:33;;;;;;;3.20;1.80;;;;;;;-1.89;70.64;99440.50;5098484;28;20048;-75
2022/04/04 03:25:59;;;;;;;3.65;1.63;;;;;;;-1.82;70.10;99438.53;5078380;28;20114;-75
2022/04/04 03:28:25;;;;;;;6.28;1.90;;;;;;;-1.86;71.20;99437.34;5095246;28;20464;-74
2022/04/04 03:30:52;;;;;;;2.85;1.50;;;;;;;-1.92;71.90;99439.06;5093141;28;20035;-75
2022/04/04 03:33:17;;;;;;;3.72;1.75;;;;;;;-1.88;71.56;99437.59;5098930;28;20118;-74
2022/04/04 03:35:43;;;;;;;2.15;1.77;;;;;;;-1.82;71.05;99444.72;5091124;28;20178;-74
2022/04/04 03:38:11;;;;;;;2.90;1.58;;;;;;;-1.64;71.92;99438.44;5075189;28;20040;-76
2022/04/04 03:40:37;;;;;;;6.25;1.77;;;;;;;-1.47;71.44;99443.16;5095678;28;20043;-75
2022/04/04 03:43:03;;;;;;;2.72;1.45;;;;;;;-1.35;71.67;99433.22;5083881;28;20124;-74
2022/04/04 03:45:29;;;;;;;4.35;1.92;;;;;;;-1.26;71.38;99432.63;5065606;28;20032;-75
2022/04/04 03:47:56;;;;;;;4.63;2.10;;;;;;;-1.22;71.11;99435.66;5092815;28;20036;-75
2022/04/04 03:50:22;;;;;;;3.20;1.33;;;;;;;-1.25;70.95;99441.53;5096687;28;20132;-75
2022/04/04 03:52:52;;;;;;;2.67;1.75;;;;;;;-1.18;70.92;99436.88;5094023;28;20035;-75
2022/04/04 03:55:18;;;;;;;3.47;1.73;;;;;;;-1.04;71.24;99440.97;5091428;28;20036;-75
2022/04/04 03:57:45;;;;;;;3.85;2.03;;;;;;;-0.89;70.48;99435.06;5094335;28;20047;-76
2022/04/04 04:00:11;;;;;;;4.85;2.00;;;;;;;-0.74;70.39;99435.41;5091713;28;20490;-74
2022/04/04 04:02:40;;;;;;;2.70;1.65;;;;;;;-0.52;70.34;99441.00;5094731;28;20089;-75
2022/04/04 04:05:06;;;;;;;2.15;1.80;;;;;;;-0.30;69.88;99435.78;5075016;28;20040;-74
2022/04/04 04:07:32;;;;;;;3.08;1.63;;;;;;;-0.08;69.31;99435.91;5073566;28;20553;-75
2022/04/04 04:09:58;;;;;;;3.15;1.73;;;;;;;0.13;68.69;99437.09;5097267;28;20407;-74
2022/04/04 04:12:24;;;;;;;2.60;1.65;;;;;;;0.40;68.22;99437.31;5093113;28;20044;-73
2022/04/04 04:14:51;;;;;;;5.10;1.88;;;;;;;0.63;66.94;99429.06;5090471;28;20031;-74
2022/04/04 04:17:18;;;;;;;2.60;1.60;;;;;;;0.86;66.43;99431.56;5110066;28;20044;-73
2022/04/04 04:22:30;;;;;;;4.28;1.70;;;;;;;1.11;65.08;99433.03;5092804;28;20036;-75
2022/04/04 04:24:56;;;;;;;4.00;2.00;;;;;;;1.23;64.85;99435.63;5091244;28;20053;-75
2022/04/04 04:27:22;;;;;;;2.90;1.73;;;;;;;1.32;64.38;99434.94;5087839;28;20048;-75
2022/04/04 04:29:47;;;;;;;3.60;2.03;;;;;;;1.39;63.60;99430.19;5072607;28;20036;-75
2022/04/04 04:32:13;;;;;;;4.03;2.00;;;;;;;1.48;63.54;99434.06;5091046;28;20031;-76
2022/04/04 04:34:39;;;;;;;4.60;1.90;;;;;;;1.52;63.54;99432.47;5073056;28;20077;-75
2022/04/04 04:37:05;;;;;;;3.60;1.85;;;;;;;1.55;62.99;99427.63;5072220;28;20044;-76
2022/04/04 04:39:32;;;;;;;3.55;2.22;;;;;;;1.53;63.11;99425.19;5073164;28;20086;-75
2022/04/04 04:41:58;;;;;;;3.65;2.00;;;;;;;1.55;62.97;99424.94;5090362;28;20036;-75
2022/04/04 04:44:24;;;;;;;3.70;2.00;;;;;;;1.77;62.98;99426.56;5090581;28;20043;-76
2022/04/04 04:46:52;;;;;;;4.97;1.67;;;;;;;2.02;62.09;99412.50;5090635;28;20044;-75
2022/04/04 04:49:18;;;;;;;3.58;1.70;;;;;;;2.19;61.92;99417.78;5073915;28;20139;-75
2022/04/04 04:51:44;;;;;;;5.68;2.03;;;;;;;2.36;61.54;99412.28;5089401;28;20143;-75
2022/04/04 04:54:09;;;;;;;2.78;1.77;;;;;;;2.60;60.65;99418.16;5110617;28;20035;-75
2022/04/04 04:56:35;;;;;;;7.70;2.80;;;;;;;2.83;60.11;99422.41;5091971;28;20036;-75
2022/04/04 04:59:02;;;;;;;5.85;2.00;;;;;;;3.18;58.76;99419.09;5092881;28;20047;-75
2022/04/04 05:01:28;;;;;;;3.22;2.05;;;;;;;3.52;58.25;99424.97;5109148;28;20466;-74
2022/04/04 05:03:53;;;;;;;2.85;1.98;;;;;;;3.84;57.07;99424.81;5092765;28;20035;-75
2022/04/04 05:06:19;;;;;;;3.83;1.70;;;;;;;4.08;56.83;99422.44;5092291;28;20085;-74
2022/04/04 05:08:45;;;;;;;1.90;1.48;;;;;;;4.30;55.71;99414.84;5075156;28;20048;-74
2022/04/04 05:11:11;;;;;;;4.45;1.70;;;;;;;4.47;54.90;99415.41;5112740;28;20047;-75
2022/04/04 05:13:36;;;;;;;5.07;1.80;;;;;;;4.71;53.87;99412.19;5113219;28;20146;-75
2022/04/04 05:16:07;;;;;;;3.78;1.67;;;;;;;4.76;53.55;99423.84;5102493;28;20043;-75
2022/04/04 05:18:32;;;;;;;3.58;1.63;;;;;;;4.81;53.89;99415.69;5076363;28;20032;-75
2022/04/04 05:20:58;;;;;;;5.18;1.70;;;;;;;4.95;52.98;99417.84;5101904;28;20047;-75
2022/04/04 05:23:23;;;;;;;2.83;1.77;;;;;;;5.21;52.45;99405.03;5069958;28;20441;-76
2022/04/04 05:25:49;;;;;;;4.43;1.85;;;;;;;5.49;52.33;99414.44;5113071;28;20046;-76
2022/04/04 05:28:15;;;;;;;2.10;1.55;;;;;;;5.78;51.66;99403.72;5101248;28;20568;-75
2022/04/04 05:30:41;;;;;;;6.47;1.80;;;;;;;6.04;50.83;99406.03;5105134;28;20063;-74
2022/04/04 05:33:09;;;;;;;4.38;1.60;;;;;;;6.29;49.98;99402.34;5114121;28;20043;-76
2022/04/04 05:35:35;;;;;;;2.45;1.25;;;;;;;6.59;49.48;99397.75;5076209;28;20039;-76
2022/04/04 05:38:02;;;;;;;3.38;1.65;;;;;;;6.87;49.14;99398.88;5105413;28;20630;-76
2022/04/04 05:40:27;;;;;;;3.42;1.60;;;;;;;7.06;48.40;99396.25;5075018;28;20081;-76
2022/04/04 05:42:55;;;;;;;3.42;1.40;;;;;;;7.25;47.57;99386.22;5093740;28;20036;-74
2022/04/04 05:45:21;;;;;;;6.00;2.25;;;;;;;7.34;47.59;99387.22;5080835;28;20438;-74
2022/04/04 05:47:47;;;;;;;2.08;1.35;;;;;;;7.55;47.13;99390.50;5104385;28;20070;-75
2022/04/04 05:50:13;;;;;;;8.35;1.60;;;;;;;7.67;46.91;99387.38;5113798;28;20074;-87
2022/04/04 05:52:41;;;;;;;3.35;1.45;;;;;;;7.82;46.45;99381.72;5036936;28;20063;-76
2022/04/04 05:55:07;;;;;;;3.03;1.50;;;;;;;7.83;46.32;99386.88;5094260;28;20036;-75
2022/04/04 05:57:36;;;;;;;4.68;1.60;;;;;;;7.80;46.13;99389.38;5096738;28;20036;-75
2022/04/04 06:00:02;;;;;;;;;;;;;;;7.94;46.11;99378.53;5112886;28;20413;-75
2022/04/04 06:02:39;;;;;;;3.20;1.60;;;;;;;8.06;45.60;99382.47;5112955;28;19924;-75
2022/04/04 06:05:06;;;;;;;2.92;1.35;;;;;;;8.27;45.04;99374.78;5099687;28;20138;-75
2022/04/04 06:07:35;;;;;;;4.28;1.55;;;;;;;8.50;44.02;99372.25;5092247;28;20043;-75
2022/04/04 06:10:02;;;;;;;7.60;1.73;;;;;;;8.76;43.33;99376.19;5092637;28;20517;-74
2022/04/04 06:12:28;;;;;;;2.83;1.30;;;;;;;8.96;43.11;99358.59;5092737;28;20051;-75
2022/04/04 06:14:53;;;;;;;2.13;1.40;;;;;;;9.02;42.56;99371.06;5092979;28;20036;-75
2022/04/04 06:17:19;;;;;;;2.38;1.23;;;;;;;9.08;43.03;99364.41;5092414;28;20036;-74
2022/04/04 06:19:45;;;;;;;3.15;1.55;;;;;;;9.04;41.83;99366.13;5092876;28;20139;-75
2022/04/04 06:22:11;;;;;;;6.75;1.60;;;;;;;8.91;42.25;99362.25;5092266;28;20516;-74
2022/04/04 06:24:37;;;;;;;6.35;1.90;;;;;;;8.90;42.92;99365.28;5092619;28;20454;-75
2022/04/04 06:27:03;;;;;;;5.53;2.05;;;;;;;9.00;41.86;99365.91;5092068;28;20052;-75
2022/04/04 06:29:29;;;;;;;6.47;1.50;;;;;;;9.00;41.66;99360.44;5092506;28;20375;-74
2022/04/04 06:31:56;;;;;;;3.45;1.73;;;;;;;9.19;41.40;99357.59;5113207;28;20048;-74
2022/04/04 06:34:24;;;;;;;5.67;1.70;;;;;;;9.62;40.84;99346.34;5077666;28;20422;-74
2022/04/04 06:36:50;;;;;;;3.35;1.38;;;;;;;10.03;39.88;99348.19;5113000;28;20100;-75
2022/04/04 06:39:15;;;;;;;3.50;1.75;;;;;;;10.32;38.86;99350.56;5097715;28;20663;-76
2022/04/04 06:41:41;;;;;;;4.70;1.33;;;;;;;10.49;38.32;99354.25;5092092;28;20127;-75
2022/04/04 06:44:07;;;;;;;4.22;1.48;;;;;;;10.53;37.96;99347.00;5092273;28;20470;-75
2022/04/04 06:46:36;;;;;;;5.20;1.48;;;;;;;10.91;37.46;99341.09;5091990;28;20047;-73
2022/04/04 06:49:07;;;;;;;3.85;1.60;;;;;;;11.35;37.18;99353.09;5091998;28;20059;-75
2022/04/04 06:51:33;;;;;;;5.00;1.20;;;;;;;11.57;35.77;99347.50;5091991;28;20130;-74
2022/04/04 06:54:00;;;;;;;3.58;1.50;;;;;;;11.97;35.67;99345.50;5092230;28;20040;-76
2022/04/04 06:56:25;;;;;;;6.75;1.58;;;;;;;12.44;34.12;99342.94;5074163;28;20455;-75
2022/04/04 06:58:52;;;;;;;3.88;1.58;;;;;;;12.68;33.58;99343.22;5105244;28;20498;-75
2022/04/04 07:01:19;;;;;;;7.47;1.70;;;;;;;12.83;33.46;99339.13;5112442;28;20054;-75
2022/04/04 07:03:44;;;;;;;5.60;1.40;;;;;;;12.37;33.08;99348.94;5110692;28;20441;-73
2022/04/04 07:06:10;;;;;;;3.80;1.48;;;;;;;12.14;33.37;99336.47;5091751;28;20040;-75
2022/04/04 07:08:36;;;;;;;5.90;1.52;;;;;;;12.15;33.20;99340.84;5091854;28;20068;-76
2022/04/04 07:11:03;;;;;;;2.50;1.50;;;;;;;12.46;32.69;99335.16;5091868;28;20048;-75
2022/04/04 07:13:31;;;;;;;5.50;1.77;;;;;;;12.55;32.25;99333.22;5108171;28;20043;-75
2022/04/04 07:15:58;;;;;;;2.47;1.27;;;;;;;12.00;33.11;99333.06;5101349;28;20432;-75
2022/04/04 07:18:24;;;;;;;9.88;1.60;;;;;;;12.06;32.62;99326.28;5091498;28;20035;-75
2022/04/04 07:20:49;;;;;;;5.20;1.20;;;;;;;11.73;32.51;99334.13;5073473;28;20032;-76
2022/04/04 07:23:15;;;;;;;2.03;1.20;;;;;;;11.91;32.63;99326.75;5091309;28;20043;-74
2022/04/04 07:25:40;;;;;;;4.53;1.27;;;;;;;12.31;32.53;99330.16;5091307;28;20039;-74
2022/04/04 07:28:08;;;;;;;8.07;1.70;;;;;;;12.75;31.37;99326.22;5092621;28;20039;-74
2022/04/04 07:30:34;;;;;;;9.88;1.27;;;;;;;13.06;31.38;99322.41;5108626;28;20035;-75
2022/04/04 07:33:01;;;;;;;2.47;1.10;;;;;;;12.68;31.33;99320.41;5111525;28;20031;-75
2022/04/04 07:35:27;;;;;;;5.35;1.40;;;;;;;12.85;31.00;99317.63;5092652;28;20040;-75
2022/04/04 07:37:53;;;;;;;12.48;1.38;;;;;;;12.93;30.38;99315.97;5111992;28;20130;-75
2022/04/04 07:40:20;;;;;;;7.57;1.42;;;;;;;12.97;30.64;99309.44;5111757;28;20119;-75
2022/04/04 07:42:46;;;;;;;5.43;1.10;;;;;;;13.07;30.14;99310.25;5111618;28;20051;-74
2022/04/04 07:45:13;;;;;;;7.10;1.17;;;;;;;13.27;30.77;99304.03;5092536;28;20036;-74
2022/04/04 07:47:39;;;;;;;;;;;;;;;13.37;30.73;99298.16;5104755;28;20042;-75
2022/04/04 07:50:06;;;;;;;2.25;0.73;;;;;;;13.21;29.95;99288.84;5111466;28;20002;-75
2022/04/04 07:52:32;;;;;;;4.00;1.05;;;;;;;12.92;30.47;99295.88;5110728;28;20041;-75
2022/04/04 07:54:58;;;;;;;6.10;1.27;;;;;;;12.75;30.84;99287.69;5111249;28;20036;-74
2022/04/04 07:57:23;;;;;;;2.67;1.05;;;;;;;13.00;30.64;99280.44;5111404;28;20043;-75
2022/04/04 07:59:51;;;;;;;5.05;1.20;;;;;;;12.80;31.34;99281.97;5111203;28;20122;-75
2022/04/04 08:02:17;;;;;;;;;;;;;;;12.28;31.41;99279.34;5111821;28;20572;-74
2022/04/04 08:04:43;;;;;;;2.53;0.80;;;;;;;12.41;31.80;99285.00;5074422;28;20015;-74
2022/04/04 08:07:08;;;;;;;3.30;1.00;;;;;;;12.63;31.45;99285.59;5090895;28;20043;-75
2022/04/04 08:09:34;;;;;;;3.65;1.02;;;;;;;12.44;31.72;99282.41;5090615;28;20399;-74
2022/04/04 08:11:59;;;;;;;4.25;1.00;;;;;;;12.65;31.99;99282.50;5056018;28;20048;-75
2022/04/04 08:14:25;;;;;;;5.28;1.00;;;;;;;12.38;31.27;99270.78;5076355;28;20036;-76
2022/04/04 08:16:52;;;;;;;2.10;0.90;;;;;;;11.14;32.42;99279.53;5111393;28;20035;-75
2022/04/04 08:19:18;;;;;;;4.03;0.90;;;;;;;10.38;34.32;99278.03;5111201;28;20409;-74
2022/04/04 08:21:47;;;;;;;5.35;1.30;;;;;;;9.83;34.66;99270.00;5094200;28;20818;-74
2022/04/04 08:24:13;;;;;;;2.63;1.30;;;;;;;9.23;35.85;99262.84;5091861;28;20085;-74
2022/04/04 08:26:39;;;;;;;6.22;1.10;;;;;;;8.68;37.24;99265.59;5090501;28;20044;-75
2022/04/04 08:29:07;;;;;;;2.88;1.13;;;;;;;8.30;37.96;99262.13;5090967;28;20048;-74
2022/04/04 08:31:33;;;;;;;;;;;;;;;8.01;37.95;99276.00;5056468;28;20032;-74
2022/04/04 08:33:58;;;;;;;3.83;0.90;;;;;;;8.00;39.16;99268.91;5090608;28;19988;-74
2022/04/04 08:36:24;;;;;;;2.92;1.13;;;;;;;8.04;38.74;99266.41;5090807;28;20044;-74
2022/04/04 08:38:50;;;;;;;3.22;0.85;;;;;;;8.86;38.47;99263.06;5091582;28;20609;-74
2022/04/04 08:41:15;;;;;;;3.47;0.70;;;;;;;9.43;37.23;99264.34;5090757;28;20047;-76
2022/04/04 08:43:43;;;;;;;1.20;0.70;;;;;;;9.61;36.91;99257.91;5072987;28;20036;-74
2022/04/04 08:46:09;;;;;;;0.77;0.70;;;;;;;10.25;34.50;99252.31;5093065;28;20043;-74
2022/04/04 08:48:40;;;;;;;1.80;0.65;;;;;;;10.73;34.67;99248.84;5076247;28;20040;-74
2022/04/04 08:51:09;;;;;;;5.38;1.17;;;;;;;11.07;34.10;99256.41;5059591;28;20048;-73
2022/04/04 08:53:38;;;;;;;2.40;0.70;;;;;;;11.48;33.57;99245.06;5094729;28;20032;-74
2022/04/04 08:56:05;;;;;;;1.35;0.93;;;;;;;11.32;32.92;99244.69;5094208;28;20043;-73
2022/04/04 08:58:32;;;;;;;1.52;0.85;;;;;;;11.19;33.41;99248.38;5104049;28;20035;-74
2022/04/04 09:00:58;;;;;;;3.15;0.93;;;;;;;10.96;33.46;99244.91;5114742;28;20114;-73
2022/04/04 09:03:29;;;;;;;4.22;0.50;;;;;;;10.63;33.75;99241.72;5114176;28;20135;-74
2022/04/04 09:05:56;;;;;;;2.08;0.60;;;;;;;10.07;35.08;99245.06;5096922;28;20035;-74
2022/04/04 09:08:23;;;;;;;2.55;0.70;;;;;;;9.96;35.09;99242.56;5114643;28;20036;-73
2022/04/04 09:10:54;;;;;;;1.67;0.60;;;;;;;9.49;35.63;99235.72;5111535;28;20040;-73
2022/04/04 09:13:22;;;;;;;2.80;0.70;;;;;;;8.56;36.32;99240.66;5093669;28;20043;-74
2022/04/04 09:15:58;;;;;;;0.77;0.60;;;;;;;8.07;37.80;99238.47;5094085;28;20040;-74
2022/04/04 09:18:41;;;;;;;1.55;0.60;;;;;;;7.71;38.42;99246.44;5093894;28;20134;-75
2022/04/04 09:21:10;;;;;;;1.13;0.68;;;;;;;7.77;38.91;99243.31;5076108;28;20222;-73
2022/04/04 09:23:42;;;;;;;2.75;1.05;;;;;;;8.01;39.07;99243.22;5075341;28;20661;-74
2022/04/04 09:26:24;;;;;;;3.53;0.57;;;;;;;8.04;38.44;99230.88;5093390;28;20563;-74
2022/04/04 09:28:50;;;;;;;3.67;0.63;;;;;;;7.80;39.10;99226.34;5099148;28;20049;-73
2022/04/04 09:31:16;;;;;;;0.80;0.25;;;;;;;7.64;40.19;99229.63;5099328;28;20119;-74
2022/04/04 09:33:42;;;;;;;2.28;1.08;;;;;;;7.31;40.68;99226.81;5092934;28;20696;-74
2022/04/04 09:36:08;;;;;;;1.08;0.40;;;;;;;7.20;41.07;99225.31;5093458;28;20127;-74
2022/04/04 09:38:35;;;;;;;0.70;0.60;;;;;;;6.94;41.31;99227.56;5075619;28;20067;-74
2022/04/04 09:41:19;;;;;;;1.45;0.40;;;;;;;6.56;42.28;99210.28;5093276;28;20051;-75
2022/04/04 09:43:57;;;;;;;2.05;0.68;;;;;;;6.32;43.50;99208.38;5093264;28;20039;-74
2022/04/04 09:46:23;;;;;;;2.10;0.90;;;;;;;6.28;43.08;99217.41;5076046;28;20178;-75
2022/04/04 09:49:15;;;;;;;1.27;0.70;;;;;;;6.28;43.78;99207.31;5103082;28;20494;-74
2022/04/04 09:51:42;;;;;;;5.07;0.80;;;;;;;6.17;44.41;99205.78;5093553;28;20036;-74
2022/04/04 09:54:16;;;;;;;1.98;0.57;;;;;;;6.13;44.58;99199.28;5092990;28;20040;-74
2022/04/04 09:56:42;;;;;;;3.47;1.60;;;;;;;6.31;44.33;99200.47;5074163;28;20043;-74
2022/04/04 09:59:10;;;;;;;4.47;0.90;;;;;;;6.31;45.21;99204.03;5075301;28;20040;-74
2022/04/04 10:01:36;;;;;;;;;;;;;;;6.29;45.36;99202.69;5076517;28;20039;-75
2022/04/04 10:04:02;;;;;;;2.10;0.70;;;;;;;6.21;45.18;99197.84;5095304;28;19924;-74
2022/04/04 10:06:30;;;;;;;2.75;0.73;;;;;;;6.32;45.00;99183.84;5092757;28;20040;-74
2022/04/04 10:08:59;;;;;;;0.95;0.80;;;;;;;6.35;45.31;99201.53;5041490;28;20234;-73
2022/04/04 10:11:26;;;;;;;4.45;1.15;;;;;;;6.23;45.34;99196.47;5092792;28;20051;-73
2022/04/04 10:13:52;;;;;;;3.75;0.90;;;;;;;5.89;46.28;99191.03;5092847;28;20036;-73
2022/04/04 10:16:18;;;;;;;4.32;1.10;;;;;;;5.75;46.68;99190.09;5093573;28;20704;-73
2022/04/04 10:18:45;;;;;;;4.97;0.90;;;;;;;5.78;46.77;99178.63;5076739;28;20131;-73
2022/04/04 10:21:11;;;;;;;3.92;1.10;;;;;;;5.69;47.55;99191.19;5112966;28;20042;-74
2022/04/04 10:23:41;;;;;;;3.53;1.15;;;;;;;5.80;47.66;99186.50;5083550;28;20044;-73
2022/04/04 10:26:07;;;;;;;1.42;0.82;;;;;;;5.88;46.92;99180.44;5081324;28;20051;-74
2022/04/04 10:28:41;;;;;;;3.95;1.02;;;;;;;5.92;47.22;99184.25;5112580;28;20046;-73
2022/04/04 10:31:21;;;;;;;5.60;1.10;;;;;;;5.70;47.58;99177.31;5110693;28;20063;-74
2022/04/04 10:33:48;;;;;;;8.07;1.15;;;;;;;5.68;47.97;99171.34;5091906;28;20426;-73
2022/04/04 10:36:21;;;;;;;5.05;0.90;;;;;;;5.60;48.15;99180.13;5079520;28;20442;-74
2022/04/04 10:38:50;;;;;;;3.90;1.10;;;;;;;5.48;48.25;99171.50;5074374;28;20173;-74
2022/04/04 10:41:21;;;;;;;5.40;0.90;;;;;;;5.41;48.47;99173.75;5092774;28;20032;-74
2022/04/04 10:43:48;;;;;;;2.67;0.95;;;;;;;5.45;48.92;99174.78;5094934;28;20055;-73
2022/04/04 10:46:19;;;;;;;5.18;1.00;;;;;;;5.40;48.85;99163.97;5096863;28;20040;-73
2022/04/04 10:48:58;;;;;;;3.20;1.20;;;;;;;5.45;49.23;99169.34;5090986;28;20116;-74
2022/04/04 10:51:31;;;;;;;3.50;0.90;;;;;;;5.49;49.46;99167.69;5073995;28;20625;-73
2022/04/04 10:54:03;;;;;;;5.85;1.25;;;;;;;5.36;49.33;99176.47;5091169;28;20080;-74
2022/04/04 10:56:36;;;;;;;2.30;1.10;;;;;;;5.36;49.96;99181.91;5111722;28;20048;-74
2022/04/04 10:59:21;;;;;;;4.63;1.20;;;;;;;5.15;52.65;99171.19;5077599;28;20495;-73
2022/04/04 11:01:48;;;;;;;2.40;1.40;;;;;;;4.99;53.09;99180.50;5099674;28;20040;-74
2022/04/04 11:07:38;;;;;;;2.63;1.40;;;;;;;4.71;55.53;99178.50;5090341;28;20082;-74
2022/04/04 11:07:41;;;;;;;1.52;1.10;;;;;;;4.39;58.00;99178.88;5077524;28;20040;-74
2022/04/04 11:10:10;;;;;;;1.58;0.90;;;;;;;4.17;59.46;99187.34;5104935;28;20036;-73
2022/04/04 11:12:56;;;;;;;2.78;0.85;;;;;;;4.24;60.21;99183.25;5073396;28;20532;-74
2022/04/04 11:15:55;;;;;;;2.63;0.80;;;;;;;4.34;59.97;99173.44;5097553;28;20046;-74
2022/04/04 11:18:24;;;;;;;1.70;1.00;;;;;;;4.31;60.13;99174.81;5054498;28;20051;-73
2022/04/04 11:20:58;;;;;;;3.65;1.20;;;;;;;4.43;61.82;99169.91;5079229;28;20110;-74
2022/04/04 11:23:33;;;;;;;2.25;0.95;;;;;;;4.56;61.80;99154.91;5107749;28;20108;-74
2022/04/04 11:26:01;;;;;;;2.05;0.90;;;;;;;4.76;61.99;99152.09;5100792;27;20043;-73
2022/04/04 11:28:31;;;;;;;2.17;1.02;;;;;;;4.98;61.81;99156.34;5114548;27;20047;-73
2022/04/04 11:31:07;;;;;;;3.90;1.23;;;;;;;5.27;61.03;99145.56;5110429;28;20085;-74
2022/04/04 11:33:51;;;;;;;4.10;1.33;;;;;;;5.41;60.24;99146.53;5093349;28;20040;-75
2022/04/04 11:36:28;;;;;;;1.85;1.10;;;;;;;5.53;58.91;99132.56;5090146;28;20093;-74
2022/04/04 11:38:59;;;;;;;3.22;1.38;;;;;;;5.55;57.48;99130.34;5074327;28;20139;-74
2022/04/04 11:41:24;;;;;;;5.40;1.20;;;;;;;5.53;57.31;99122.47;5099946;28;20119;-74
2022/04/04 11:43:52;;;;;;;2.45;1.00;;;;;;;5.56;56.18;99124.66;5085191;28;20142;-74
2022/04/04 11:46:22;;;;;;;1.63;1.00;;;;;;;5.57;55.61;99118.13;5099917;28;20078;-73